Time;durP1;ratioP1;P1;durP2;ratioP2;P2;SDS_P1;SDS_P2;PMS_P1;PMS_P2;Temp;Humidity;BMP_temperature;BMP_pressure;BME280_temperature;BME280_humidity;BME280_pressure;Samples;Min_cycle;Max_cycle;Signal;HPM_P1;HPM_P2
2023/06/16 00:46:05;;;;;;;5.00;4.47;;;;;;;;;;5322946;22;20490;-61
2023/06/16 00:48:33;;;;;;;8.77;5.00;;;;;;;;;;5035221;28;20437;-60
2023/06/16 00:51:00;;;;;;;5.00;4.50;;;;;;;;;;5035212;28;20486;-62
2023/06/16 00:53:30;;;;;;;5.50;4.93;;;;;;;;;;5034923;28;20943;-61
2023/06/16 00:55:58;;;;;;;6.63;4.50;;;;;;;;;;5035902;28;20458;-60
2023/06/16 00:58:25;;;;;;;5.33;4.63;;;;;;;;;;5034970;28;20937;-60
2023/06/16 01:00:52;;;;;;;5.87;5.37;;;;;;;;;;5035128;28;20448;-63
2023/06/16 01:03:21;;;;;;;5.10;4.70;;;;;;;;;;5035125;28;20436;-60
2023/06/16 01:05:49;;;;;;;6.40;5.40;;;;;;;;;;5034765;28;20442;-60
2023/06/16 01:08:18;;;;;;;6.50;5.10;;;;;;;;;;5034926;28;20449;-60
2023/06/16 01:10:51;;;;;;;7.33;5.00;;;;;;;;;;5034848;28;20479;-60
2023/06/16 01:13:22;;;;;;;5.77;5.27;;;;;;;;;;5034687;28;20780;-60
2023/06/16 01:15:50;;;;;;;5.37;4.83;;;;;;;;;;5035127;28;20455;-60
2023/06/16 01:18:22;;;;;;;7.50;4.80;;;;;;;;;;5034525;28;20446;-60
2023/06/16 01:20:54;;;;;;;5.60;4.80;;;;;;;;;;5034441;28;20433;-60
2023/06/16 01:23:28;;;;;;;5.00;4.50;;;;;;;;;;5034525;28;20905;-60
2023/06/16 01:25:58;;;;;;;6.03;5.17;;;;;;;;;;5034673;28;20435;-60
2023/06/16 01:28:26;;;;;;;7.30;4.93;;;;;;;;;;5034491;28;20838;-62
2023/06/16 01:30:54;;;;;;;5.77;4.97;;;;;;;;;;5034422;28;20835;-61
2023/06/16 01:33:22;;;;;;;6.33;4.80;;;;;;;;;;5034683;28;20471;-61
2023/06/16 01:35:51;;;;;;;6.57;5.97;;;;;;;;;;5034366;28;20459;-61
2023/06/16 01:38:19;;;;;;;6.90;5.20;;;;;;;;;;5034746;28;20517;-61
2023/06/16 01:40:46;;;;;;;4.97;4.50;;;;;;;;;;5034385;28;20454;-62
2023/06/16 01:43:16;;;;;;;8.20;5.10;;;;;;;;;;5034302;28;20450;-61
2023/06/16 01:45:43;;;;;;;4.97;4.57;;;;;;;;;;5034236;28;20479;-61
2023/06/16 01:48:11;;;;;;;5.30;4.90;;;;;;;;;;5034603;28;20443;-61
2023/06/16 01:50:38;;;;;;;6.63;4.63;;;;;;;;;;5033693;28;20478;-61
2023/06/16 01:53:05;;;;;;;5.43;4.93;;;;;;;;;;5033871;28;20443;-62
2023/06/16 01:55:32;;;;;;;6.37;5.77;;;;;;;;;;5034281;28;20450;-62
2023/06/16 01:58:00;;;;;;;8.13;5.10;;;;;;;;;;5034865;28;20446;-60
2023/06/16 02:00:29;;;;;;;6.17;4.97;;;;;;;;;;5033547;28;20455;-61
2023/06/16 02:02:59;;;;;;;5.17;4.67;;;;;;;;;;5033967;28;20442;-60
2023/06/16 02:05:27;;;;;;;6.63;5.40;;;;;;;;;;5033995;28;20445;-63
2023/06/16 02:07:56;;;;;;;5.70;5.20;;;;;;;;;;5034027;28;20534;-61
2023/06/16 02:10:24;;;;;;;6.73;5.63;;;;;;;;;;5033733;28;20502;-61
2023/06/16 02:12:52;;;;;;;7.20;5.30;;;;;;;;;;5033770;28;20535;-60
2023/06/16 02:15:19;;;;;;;5.40;4.90;;;;;;;;;;5033584;28;20473;-61
2023/06/16 02:17:50;;;;;;;8.23;6.30;;;;;;;;;;5033707;28;20443;-60
2023/06/16 02:20:17;;;;;;;6.43;5.50;;;;;;;;;;5034124;28;20468;-61
2023/06/16 02:22:44;;;;;;;6.47;5.50;;;;;;;;;;5033651;28;20881;-61
2023/06/16 02:25:12;;;;;;;6.47;5.83;;;;;;;;;;5032860;28;20442;-61
2023/06/16 02:27:40;;;;;;;6.47;5.87;;;;;;;;;;5033587;28;20453;-61
2023/06/16 02:30:08;;;;;;;7.30;5.20;;;;;;;;;;5033366;28;20449;-61
2023/06/16 02:32:36;;;;;;;6.60;5.70;;;;;;;;;;5033344;28;20458;-61
2023/06/16 02:35:04;;;;;;;10.43;5.43;;;;;;;;;;5033507;28;20450;-61
2023/06/16 02:37:32;;;;;;;7.40;5.10;;;;;;;;;;5033622;28;20546;-61
2023/06/16 02:39:59;;;;;;;5.87;5.37;;;;;;;;;;5033338;28;20450;-61
2023/06/16 02:42:26;;;;;;;6.60;5.53;;;;;;;;;;5033760;28;20441;-61
2023/06/16 02:44:53;;;;;;;9.33;5.90;;;;;;;;;;5033069;28;20478;-62
2023/06/16 02:47:21;;;;;;;6.30;5.70;;;;;;;;;;5033454;28;20423;-62
2023/06/16 02:49:48;;;;;;;6.20;4.90;;;;;;;;;;5033160;28;20442;-62
2023/06/16 02:52:17;;;;;;;6.43;5.70;;;;;;;;;;5032948;28;20476;-61
2023/06/16 02:54:44;;;;;;;9.07;5.00;;;;;;;;;;5033235;28;20517;-61
2023/06/16 02:57:11;;;;;;;6.10;5.60;;;;;;;;;;5033205;28;20447;-62
2023/06/16 02:59:38;;;;;;;7.90;5.00;;;;;;;;;;5033559;28;20447;-61
2023/06/16 03:02:06;;;;;;;6.70;5.73;;;;;;;;;;5033118;28;20448;-61
2023/06/16 03:04:34;;;;;;;5.93;4.93;;;;;;;;;;5033358;28;20449;-61
2023/06/16 03:07:02;;;;;;;8.77;5.67;;;;;;;;;;5032643;28;20453;-61
2023/06/16 03:09:32;;;;;;;8.53;5.87;;;;;;;;;;5033180;28;20458;-61
2023/06/16 03:11:59;;;;;;;8.00;5.70;;;;;;;;;;5033072;28;20484;-61
2023/06/16 03:14:26;;;;;;;6.03;5.43;;;;;;;;;;5033054;28;20447;-61
2023/06/16 03:16:55;;;;;;;8.53;5.90;;;;;;;;;;5033088;28;20496;-61
2023/06/16 03:19:22;;;;;;;6.27;5.70;;;;;;;;;;5033144;28;20802;-61
2023/06/16 03:21:50;;;;;;;7.97;5.80;;;;;;;;;;5033315;28;20447;-61
2023/06/16 03:24:17;;;;;;;7.53;5.43;;;;;;;;;;5032655;28;20452;-61
2023/06/16 03:26:46;;;;;;;6.00;5.40;;;;;;;;;;5032905;28;20462;-62
2023/06/16 03:29:13;;;;;;;6.80;5.73;;;;;;;;;;5032939;28;20947;-61
2023/06/16 03:31:41;;;;;;;8.37;5.70;;;;;;;;;;5032437;28;20505;-61
2023/06/16 03:34:08;;;;;;;6.77;5.80;;;;;;;;;;5032937;28;20439;-60
2023/06/16 03:36:36;;;;;;;8.53;5.10;;;;;;;;;;5033929;28;20441;-61
2023/06/16 03:39:03;;;;;;;6.37;5.57;;;;;;;;;;5036432;28;20458;-61
2023/06/16 03:41:31;;;;;;;14.00;5.90;;;;;;;;;;5036809;28;20503;-62
2023/06/16 03:43:59;;;;;;;6.70;5.20;;;;;;;;;;5036624;28;20444;-61
2023/06/16 03:46:26;;;;;;;5.60;5.07;;;;;;;;;;5036108;28;20474;-60
2023/06/16 03:48:53;;;;;;;10.43;5.57;;;;;;;;;;5036443;28;20455;-61
2023/06/16 03:51:21;;;;;;;9.53;5.83;;;;;;;;;;5036208;28;20484;-61
2023/06/16 03:53:48;;;;;;;5.67;5.17;;;;;;;;;;5029222;28;20933;-61
2023/06/16 03:56:15;;;;;;;6.60;6.00;;;;;;;;;;5015018;28;20941;-61
2023/06/16 03:58:43;;;;;;;7.13;5.47;;;;;;;;;;5016085;28;21074;-61
2023/06/16 04:01:11;;;;;;;5.60;5.10;;;;;;;;;;5016194;28;20456;-61
2023/06/16 04:03:38;;;;;;;6.33;5.20;;;;;;;;;;5015812;28;20929;-61
2023/06/16 04:06:06;;;;;;;5.87;5.07;;;;;;;;;;5016176;28;20444;-61
2023/06/16 04:08:33;;;;;;;6.27;5.67;;;;;;;;;;5016266;28;20455;-61
2023/06/16 04:11:00;;;;;;;7.60;6.70;;;;;;;;;;5015710;28;20489;-61
2023/06/16 04:13:29;;;;;;;6.87;6.10;;;;;;;;;;5015564;28;20445;-61
2023/06/16 04:15:56;;;;;;;5.93;5.40;;;;;;;;;;5015614;28;20510;-61
2023/06/16 04:18:25;;;;;;;5.90;5.40;;;;;;;;;;5015770;28;20506;-61
2023/06/16 04:20:52;;;;;;;6.33;5.70;;;;;;;;;;5016231;28;20475;-61
2023/06/16 04:23:19;;;;;;;5.17;4.67;;;;;;;;;;5015343;28;20443;-61
2023/06/16 04:25:47;;;;;;;5.87;5.00;;;;;;;;;;5015811;28;20446;-60
2023/06/16 04:28:15;;;;;;;7.70;6.53;;;;;;;;;;5015534;28;20458;-60
2023/06/16 04:30:42;;;;;;;6.10;5.50;;;;;;;;;;5015814;28;20451;-61
2023/06/16 04:33:09;;;;;;;8.23;6.20;;;;;;;;;;5015709;28;20440;-64
2023/06/16 04:35:38;;;;;;;8.13;6.07;;;;;;;;;;5015391;28;20460;-60
2023/06/16 04:38:07;;;;;;;9.50;6.10;;;;;;;;;;5015634;28;20498;-60
2023/06/16 04:40:35;;;;;;;6.67;5.30;;;;;;;;;;5015834;28;20450;-60
2023/06/16 04:43:03;;;;;;;6.43;5.83;;;;;;;;;;5015428;28;20445;-60
2023/06/16 04:45:30;;;;;;;6.60;5.33;;;;;;;;;;5014875;28;20547;-61
2023/06/16 04:47:57;;;;;;;8.37;5.67;;;;;;;;;;5015228;28;20465;-60
2023/06/16 04:50:24;;;;;;;6.20;5.60;;;;;;;;;;5015301;28;20452;-60
2023/06/16 04:52:53;;;;;;;9.53;5.20;;;;;;;;;;5015345;28;20487;-60
2023/06/16 04:55:20;;;;;;;5.90;5.30;;;;;;;;;;5015030;28;20456;-60
2023/06/16 04:57:48;;;;;;;7.80;5.43;;;;;;;;;;5015169;28;20506;-60
2023/06/16 05:00:15;;;;;;;5.80;5.27;;;;;;;;;;5015449;28;20454;-60
2023/06/16 05:02:42;;;;;;;9.03;6.13;;;;;;;;;;5014902;28;20460;-61
2023/06/16 05:05:11;;;;;;;7.50;5.53;;;;;;;;;;5015304;28;20441;-60
2023/06/16 05:07:38;;;;;;;6.50;5.90;;;;;;;;;;5014830;28;20448;-60
2023/06/16 05:10:08;;;;;;;6.30;5.53;;;;;;;;;;5015176;28;20443;-60
2023/06/16 05:12:35;;;;;;;11.40;6.87;;;;;;;;;;5015212;28;20503;-60
2023/06/16 05:15:02;;;;;;;12.30;6.70;;;;;;;;;;5015227;28;20806;-60
2023/06/16 05:17:30;;;;;;;6.40;5.60;;;;;;;;;;5014672;28;20502;-60
2023/06/16 05:19:57;;;;;;;6.43;5.70;;;;;;;;;;5015125;28;20444;-60
2023/06/16 05:22:24;;;;;;;10.10;5.90;;;;;;;;;;5014978;28;20470;-60
2023/06/16 05:24:55;;;;;;;11.73;5.87;;;;;;;;;;5014843;28;20447;-59
2023/06/16 05:27:25;;;;;;;9.07;6.10;;;;;;;;;;5015145;28;20830;-60
2023/06/16 05:29:52;;;;;;;8.10;6.23;;;;;;;;;;5014519;28;20440;-61
2023/06/16 05:32:21;;;;;;;7.63;5.40;;;;;;;;;;5014966;28;20515;-60
2023/06/16 05:34:48;;;;;;;6.10;5.50;;;;;;;;;;5014672;28;20445;-60
2023/06/16 05:37:16;;;;;;;6.50;5.30;;;;;;;;;;5014608;28;20546;-60
2023/06/16 05:39:43;;;;;;;9.57;5.17;;;;;;;;;;5014953;28;20474;-60
2023/06/16 05:42:11;;;;;;;7.03;5.10;;;;;;;;;;5014181;28;20449;-61
2023/06/16 05:44:40;;;;;;;7.40;5.20;;;;;;;;;;5014408;28;20979;-60
2023/06/16 05:47:07;;;;;;;7.33;5.80;;;;;;;;;;5014517;28;20432;-61
2023/06/16 05:49:34;;;;;;;13.53;5.77;;;;;;;;;;5014474;28;20440;-60
2023/06/16 05:52:04;;;;;;;7.90;5.60;;;;;;;;;;5014395;28;20488;-60
2023/06/16 05:54:31;;;;;;;8.03;5.90;;;;;;;;;;5014085;28;20516;-60
2023/06/16 05:56:58;;;;;;;6.47;5.87;;;;;;;;;;5014350;28;20870;-61
2023/06/16 05:59:26;;;;;;;10.63;6.43;;;;;;;;;;5014161;28;20474;-60
2023/06/16 06:01:54;;;;;;;8.50;5.40;;;;;;;;;;5013752;28;20451;-60
2023/06/16 06:04:22;;;;;;;6.63;5.30;;;;;;;;;;5014148;28;20445;-60
2023/06/16 06:06:49;;;;;;;6.17;5.33;;;;;;;;;;5014123;28;20450;-60
2023/06/16 06:09:17;;;;;;;9.57;6.40;;;;;;;;;;5013675;28;20448;-60
2023/06/16 06:11:44;;;;;;;5.97;5.30;;;;;;;;;;5013922;28;20536;-60
2023/06/16 06:14:12;;;;;;;7.20;6.10;;;;;;;;;;5013499;28;20464;-60
2023/06/16 06:16:39;;;;;;;11.10;6.30;;;;;;;;;;5013999;28;20436;-60
2023/06/16 06:19:08;;;;;;;6.50;5.90;;;;;;;;;;5013462;28;20448;-60
2023/06/16 06:21:36;;;;;;;12.00;6.80;;;;;;;;;;5014340;28;20452;-60
2023/06/16 06:24:03;;;;;;;6.63;6.13;;;;;;;;;;5013823;28;20449;-60
2023/06/16 06:26:30;;;;;;;7.77;7.00;;;;;;;;;;5013721;28;20448;-60
2023/06/16 06:28:57;;;;;;;7.37;6.67;;;;;;;;;;5013800;28;20441;-60
2023/06/16 06:31:24;;;;;;;8.10;7.10;;;;;;;;;;5013393;28;20455;-60
2023/06/16 06:33:51;;;;;;;8.33;7.33;;;;;;;;;;5013547;28;20441;-60
2023/06/16 06:36:25;;;;;;;12.13;7.27;;;;;;;;;;5014303;28;20437;-61
2023/06/16 06:38:52;;;;;;;10.57;7.57;;;;;;;;;;5013885;28;20434;-60
2023/06/16 06:41:20;;;;;;;14.40;7.73;;;;;;;;;;5013968;28;20441;-60
2023/06/16 06:43:47;;;;;;;7.40;6.70;;;;;;;;;;5013794;28;20441;-60
2023/06/16 06:46:14;;;;;;;7.13;6.53;;;;;;;;;;5013771;28;20477;-60
2023/06/16 06:48:41;;;;;;;12.40;7.70;;;;;;;;;;5013979;28;20444;-60
2023/06/16 06:51:09;;;;;;;11.60;7.57;;;;;;;;;;5013544;28;20442;-60
2023/06/16 06:53:38;;;;;;;14.00;7.50;;;;;;;;;;5013699;28;20483;-61
2023/06/16 06:56:05;;;;;;;7.80;7.10;;;;;;;;;;5013567;28;20455;-61
2023/06/16 06:58:34;;;;;;;9.90;7.00;;;;;;;;;;5013149;28;20449;-61
2023/06/16 07:01:01;;;;;;;8.50;6.73;;;;;;;;;;5013150;28;20453;-60
2023/06/16 07:03:28;;;;;;;7.93;6.13;;;;;;;;;;5013060;28;20458;-61
2023/06/16 07:05:55;;;;;;;11.07;6.50;;;;;;;;;;5013957;28;20449;-60
2023/06/16 07:08:22;;;;;;;7.50;6.07;;;;;;;;;;5012949;28;20449;-61
2023/06/16 07:10:51;;;;;;;13.70;6.90;;;;;;;;;;5013050;28;20927;-61
2023/06/16 07:13:18;;;;;;;7.40;5.70;;;;;;;;;;5016930;28;20472;-61
2023/06/16 07:15:45;;;;;;;7.40;6.70;;;;;;;;;;5017031;28;20484;-60
2023/06/16 07:18:12;;;;;;;12.67;6.73;;;;;;;;;;5017204;28;20441;-61
2023/06/16 07:20:39;;;;;;;7.60;6.60;;;;;;;;;;5017372;28;20465;-61
2023/06/16 07:23:07;;;;;;;7.90;7.10;;;;;;;;;;5017162;28;20449;-61
2023/06/16 07:25:36;;;;;;;10.03;6.73;;;;;;;;;;5017946;28;20441;-61
2023/06/16 07:28:05;;;;;;;14.33;6.53;;;;;;;;;;5017173;28;20445;-61
2023/06/16 07:30:32;;;;;;;7.53;6.00;;;;;;;;;;5017126;28;20450;-61
2023/06/16 07:32:59;;;;;;;6.20;5.70;;;;;;;;;;5017016;28;20515;-61
2023/06/16 07:35:27;;;;;;;6.23;4.77;;;;;;;;;;5016986;28;20812;-62
2023/06/16 07:37:54;;;;;;;5.83;5.33;;;;;;;;;;5017405;28;20451;-61
2023/06/16 07:40:22;;;;;;;7.50;6.10;;;;;;;;;;5016886;28;20457;-61
2023/06/16 07:42:50;;;;;;;4.97;4.57;;;;;;;;;;5016842;28;20477;-60
2023/06/16 07:45:18;;;;;;;14.83;6.70;;;;;;;;;;5016593;28;20487;-61
2023/06/16 07:47:46;;;;;;;14.53;6.53;;;;;;;;;;5016476;28;20540;-61
2023/06/16 07:50:14;;;;;;;5.80;5.30;;;;;;;;;;5016876;28;20453;-61
2023/06/16 07:52:42;;;;;;;5.50;5.10;;;;;;;;;;5016285;28;20579;-60
2023/06/16 07:55:10;;;;;;;5.30;4.90;;;;;;;;;;5016578;28;20458;-61
2023/06/16 07:57:39;;;;;;;6.10;5.50;;;;;;;;;;5016316;28;20441;-60
2023/06/16 08:00:10;;;;;;;5.03;4.60;;;;;;;;;;5016434;28;20441;-61
2023/06/16 08:02:38;;;;;;;6.10;4.30;;;;;;;;;;5016634;28;20445;-60
2023/06/16 08:05:06;;;;;;;5.63;5.13;;;;;;;;;;5016059;28;20443;-61
2023/06/16 08:07:33;;;;;;;6.30;5.00;;;;;;;;;;5016037;28;20488;-61
2023/06/16 08:10:00;;;;;;;5.17;4.77;;;;;;;;;;5016332;28;20438;-61
2023/06/16 08:12:28;;;;;;;5.50;5.00;;;;;;;;;;5016505;28;20481;-61
2023/06/16 08:14:55;;;;;;;6.63;5.07;;;;;;;;;;5016214;28;20447;-61
2023/06/16 08:17:22;;;;;;;7.90;4.90;;;;;;;;;;5016021;28;20455;-61
2023/06/16 08:19:52;;;;;;;5.33;4.50;;;;;;;;;;5016170;28;20472;-61
2023/06/16 08:22:19;;;;;;;5.23;4.53;;;;;;;;;;5016280;28;20519;-61
2023/06/16 08:24:47;;;;;;;5.80;4.77;;;;;;;;;;5015291;28;20470;-61
2023/06/16 08:27:14;;;;;;;4.90;4.47;;;;;;;;;;5016014;28;20451;-61
2023/06/16 08:29:41;;;;;;;8.50;4.70;;;;;;;;;;5015638;28;20561;-61
2023/06/16 08:32:08;;;;;;;6.17;5.00;;;;;;;;;;5015474;28;20486;-61
2023/06/16 08:34:36;;;;;;;8.27;4.60;;;;;;;;;;5015797;28;20470;-61
2023/06/16 08:37:05;;;;;;;8.40;4.63;;;;;;;;;;5015972;28;20446;-61
2023/06/16 08:39:32;;;;;;;5.40;3.87;;;;;;;;;;5015671;28;20940;-61
2023/06/16 08:42:00;;;;;;;5.93;5.00;;;;;;;;;;5015493;28;20444;-60
2023/06/16 08:44:28;;;;;;;7.70;4.80;;;;;;;;;;5015372;28;20439;-61
2023/06/16 08:46:57;;;;;;;4.87;4.47;;;;;;;;;;5015213;28;20467;-61
2023/06/16 08:49:24;;;;;;;4.93;4.43;;;;;;;;;;5015750;28;20448;-61
2023/06/16 08:51:52;;;;;;;6.90;4.63;;;;;;;;;;5015517;28;20448;-61
2023/06/16 08:54:23;;;;;;;4.13;3.73;;;;;;;;;;5015801;28;20505;-61
2023/06/16 08:56:52;;;;;;;10.27;4.93;;;;;;;;;;5015594;28;20897;-61
2023/06/16 08:59:20;;;;;;;5.20;4.60;;;;;;;;;;5015335;28;20444;-62
2023/06/16 09:01:49;;;;;;;5.60;4.60;;;;;;;;;;5015396;28;20444;-61
2023/06/16 09:04:16;;;;;;;5.30;4.83;;;;;;;;;;5015403;28;20471;-61
2023/06/16 09:06:47;;;;;;;4.90;4.40;;;;;;;;;;5015450;28;20464;-61
2023/06/16 09:09:14;;;;;;;5.43;4.93;;;;;;;;;;5015592;28;20465;-61
2023/06/16 09:11:43;;;;;;;7.93;4.87;;;;;;;;;;5015135;28;20437;-61
2023/06/16 09:14:13;;;;;;;5.10;4.60;;;;;;;;;;5015108;28;20834;-61
2023/06/16 09:16:41;;;;;;;6.13;4.97;;;;;;;;;;5015018;28;20911;-61
2023/06/16 09:19:08;;;;;;;7.03;5.13;;;;;;;;;;5014781;28;20950;-61
2023/06/16 09:21:37;;;;;;;10.40;5.13;;;;;;;;;;5014861;28;20502;-61
2023/06/16 09:24:06;;;;;;;5.57;5.00;;;;;;;;;;5014713;28;20452;-61
2023/06/16 09:26:36;;;;;;;6.23;5.63;;;;;;;;;;5014965;28;20535;-61
2023/06/16 09:29:21;;;;;;;6.80;5.07;;;;;;;;;;5014890;28;20450;-61
2023/06/16 09:31:48;;;;;;;5.70;5.07;;;;;;;;;;5014901;28;20491;-61
2023/06/16 09:34:16;;;;;;;7.37;4.87;;;;;;;;;;5014522;28;20520;-60
2023/06/16 09:36:43;;;;;;;9.83;5.27;;;;;;;;;;5014441;28;20445;-61
2023/06/16 09:39:23;;;;;;;5.67;4.27;;;;;;;;;;5014679;28;20437;-60
2023/06/16 09:41:54;;;;;;;5.50;4.30;;;;;;;;;;5014375;28;20462;-61
2023/06/16 09:44:22;;;;;;;8.13;4.30;;;;;;;;;;5014727;28;20440;-61
2023/06/16 09:46:50;;;;;;;4.83;4.43;;;;;;;;;;5014629;28;20478;-61
2023/06/16 09:49:21;;;;;;;5.50;5.00;;;;;;;;;;5014602;28;20490;-61
2023/06/16 09:51:52;;;;;;;4.33;3.73;;;;;;;;;;5014405;28;20445;-61
2023/06/16 09:54:20;;;;;;;4.90;4.40;;;;;;;;;;5014657;28;20558;-60
2023/06/16 09:56:47;;;;;;;10.57;4.70;;;;;;;;;;5014307;28;20444;-61
2023/06/16 09:59:15;;;;;;;4.90;4.50;;;;;;;;;;5014015;28;20445;-60
2023/06/16 10:01:45;;;;;;;5.90;4.40;;;;;;;;;;5014382;28;20449;-61
2023/06/16 10:04:12;;;;;;;4.70;4.33;;;;;;;;;;5014710;28;20495;-61
2023/06/16 10:06:41;;;;;;;5.70;5.10;;;;;;;;;;5014133;28;20779;-61
2023/06/16 10:09:10;;;;;;;4.93;4.27;;;;;;;;;;5013947;28;20442;-61
2023/06/16 10:11:38;;;;;;;7.73;4.87;;;;;;;;;;5013720;28;20447;-60
2023/06/16 10:14:08;;;;;;;5.87;4.73;;;;;;;;;;5013996;28;20484;-61
2023/06/16 10:16:36;;;;;;;5.33;4.83;;;;;;;;;;5014367;28;20801;-61
2023/06/16 10:19:07;;;;;;;8.20;5.27;;;;;;;;;;5014049;28;20441;-61
2023/06/16 10:21:34;;;;;;;5.70;5.10;;;;;;;;;;5013674;28;20944;-61
2023/06/16 10:24:02;;;;;;;4.87;4.47;;;;;;;;;;5013896;28;20561;-61
2023/06/16 10:26:30;;;;;;;5.20;4.80;;;;;;;;;;5013742;28;20452;-61
2023/06/16 10:28:58;;;;;;;6.50;4.67;;;;;;;;;;5013840;28;20535;-61
2023/06/16 10:31:27;;;;;;;7.27;4.60;;;;;;;;;;5013427;28;20455;-61
2023/06/16 10:33:55;;;;;;;5.43;4.93;;;;;;;;;;5013393;28;20488;-61
2023/06/16 10:36:24;;;;;;;6.33;5.03;;;;;;;;;;5013693;28;20798;-61
2023/06/16 10:38:57;;;;;;;7.67;4.50;;;;;;;;;;5014169;28;20777;-60
2023/06/16 10:41:24;;;;;;;5.90;4.40;;;;;;;;;;5013449;28;20499;-61
2023/06/16 10:43:51;;;;;;;7.13;5.43;;;;;;;;;;5013430;28;20481;-61
2023/06/16 10:46:20;;;;;;;8.70;5.40;;;;;;;;;;5013204;28;20559;-61
2023/06/16 10:48:57;;;;;;;7.17;5.17;;;;;;;;;;5013651;28;20445;-61
2023/06/16 10:51:45;;;;;;;5.10;4.60;;;;;;;;;;5013535;28;20448;-61
2023/06/16 10:54:14;;;;;;;8.23;5.00;;;;;;;;;;5013518;28;20508;-61
2023/06/16 10:56:59;;;;;;;6.93;4.53;;;;;;;;;;5013107;28;20537;-61
2023/06/16 10:59:27;;;;;;;7.70;4.93;;;;;;;;;;5013434;28;20780;-61
2023/06/16 11:01:57;;;;;;;5.30;4.13;;;;;;;;;;5013780;28;20806;-62
2023/06/16 11:04:24;;;;;;;8.60;4.50;;;;;;;;;;5013773;28;20450;-60
2023/06/16 11:07:11;;;;;;;6.23;4.50;;;;;;;;;;5013261;28;20949;-61
2023/06/16 11:09:38;;;;;;;5.17;4.67;;;;;;;;;;5013490;28;20441;-61
2023/06/16 11:12:07;;;;;;;5.23;4.73;;;;;;;;;;5013644;28;20448;-61
2023/06/16 11:14:35;;;;;;;6.13;4.83;;;;;;;;;;5012833;28;20485;-61
2023/06/16 11:17:05;;;;;;;7.47;4.90;;;;;;;;;;5012915;28;20993;-61
2023/06/16 11:19:32;;;;;;;5.10;4.13;;;;;;;;;;5013366;28;20456;-61
2023/06/16 11:22:02;;;;;;;8.00;5.53;;;;;;;;;;5013391;28;20940;-61
2023/06/16 11:24:36;;;;;;;5.73;5.10;;;;;;;;;;5012955;28;20453;-61
2023/06/16 11:27:03;;;;;;;6.30;4.80;;;;;;;;;;5013309;28;20940;-61
2023/06/16 11:29:31;;;;;;;4.33;4.03;;;;;;;;;;5012957;28;20454;-61
2023/06/16 11:31:59;;;;;;;12.40;4.83;;;;;;;;;;5013558;28;20446;-61
2023/06/16 11:34:26;;;;;;;6.10;5.33;;;;;;;;;;5013026;28;20482;-61
2023/06/16 11:36:54;;;;;;;7.00;4.23;;;;;;;;;;5013187;28;20447;-61
2023/06/16 11:39:21;;;;;;;5.27;4.77;;;;;;;;;;5013150;28;20443;-62
2023/06/16 11:41:55;;;;;;;11.20;5.20;;;;;;;;;;5012728;28;20425;-63
2023/06/16 11:44:22;;;;;;;5.53;5.03;;;;;;;;;;5013223;28;20434;-61
2023/06/16 11:46:49;;;;;;;5.13;4.50;;;;;;;;;;5013234;28;20500;-61
2023/06/16 11:49:17;;;;;;;6.57;4.77;;;;;;;;;;5012673;28;20452;-61
2023/06/16 11:51:45;;;;;;;4.67;4.30;;;;;;;;;;5013185;28;20544;-61
2023/06/16 11:54:12;;;;;;;7.50;4.80;;;;;;;;;;5012928;28;20492;-61
2023/06/16 11:56:40;;;;;;;5.17;4.57;;;;;;;;;;5012558;28;20444;-61
2023/06/16 11:59:12;;;;;;;5.83;4.60;;;;;;;;;;5015796;28;20442;-61
2023/06/16 12:01:40;;;;;;;5.70;4.90;;;;;;;;;;5016432;28;20528;-61
2023/06/16 12:04:07;;;;;;;5.83;5.23;;;;;;;;;;5015988;28;20417;-61
2023/06/16 12:06:35;;;;;;;5.40;4.90;;;;;;;;;;5016656;28;20453;-62
2023/06/16 12:09:03;;;;;;;5.23;4.80;;;;;;;;;;5016217;28;20449;-61
2023/06/16 12:11:32;;;;;;;5.57;5.13;;;;;;;;;;5016378;28;20480;-60
2023/06/16 12:13:59;;;;;;;7.53;4.67;;;;;;;;;;5015972;28;20591;-60
2023/06/16 12:16:28;;;;;;;7.47;5.17;;;;;;;;;;5016651;28;20460;-61
2023/06/16 12:18:57;;;;;;;11.07;5.60;;;;;;;;;;5016022;28;20457;-61
2023/06/16 12:21:25;;;;;;;8.27;5.30;;;;;;;;;;5016168;28;20427;-65
2023/06/16 12:23:53;;;;;;;7.83;4.57;;;;;;;;;;5015962;28;20454;-60
2023/06/16 12:26:29;;;;;;;5.97;5.07;;;;;;;;;;5016054;28;20439;-67
2023/06/16 12:28:56;;;;;;;5.30;4.87;;;;;;;;;;5016476;28;20417;-61
2023/06/16 12:31:26;;;;;;;4.67;4.27;;;;;;;;;;5023609;28;20440;-60
2023/06/16 12:33:55;;;;;;;5.60;5.10;;;;;;;;;;5035284;28;20475;-61
2023/06/16 12:36:22;;;;;;;6.00;5.07;;;;;;;;;;5035544;28;20444;-61
2023/06/16 12:38:50;;;;;;;7.70;4.53;;;;;;;;;;5033753;28;20418;-61
2023/06/16 12:41:17;;;;;;;5.87;5.33;;;;;;;;;;5034365;28;20529;-61
2023/06/16 12:43:48;;;;;;;5.50;5.00;;;;;;;;;;5034791;28;20445;-61
2023/06/16 12:46:15;;;;;;;11.10;6.57;;;;;;;;;;5034847;28;20462;-61
2023/06/16 12:48:42;;;;;;;5.00;4.53;;;;;;;;;;5034806;28;20443;-61
2023/06/16 12:51:11;;;;;;;5.20;4.63;;;;;;;;;;5034770;28;20425;-61
2023/06/16 12:53:42;;;;;;;6.90;5.27;;;;;;;;;;5034680;28;20482;-60
2023/06/16 12:56:09;;;;;;;7.60;4.90;;;;;;;;;;5034840;28;20429;-61
2023/06/16 12:58:37;;;;;;;5.20;4.80;;;;;;;;;;5034856;28;20446;-60
2023/06/16 13:01:05;;;;;;;7.33;5.90;;;;;;;;;;5035125;28;20479;-61
2023/06/16 13:03:32;;;;;;;5.90;5.30;;;;;;;;;;5034562;28;20441;-61
2023/06/16 13:05:59;;;;;;;5.97;5.47;;;;;;;;;;5034417;28;20444;-61
2023/06/16 13:08:27;;;;;;;7.17;4.90;;;;;;;;;;5033822;28;20419;-61
2023/06/16 13:10:55;;;;;;;7.10;4.50;;;;;;;;;;5033949;28;20539;-61
2023/06/16 13:13:22;;;;;;;6.80;5.00;;;;;;;;;;5034745;28;20423;-61
2023/06/16 13:15:49;;;;;;;6.40;5.80;;;;;;;;;;5034850;28;20454;-60
2023/06/16 13:18:16;;;;;;;6.10;5.50;;;;;;;;;;5034461;28;20539;-61
2023/06/16 13:20:44;;;;;;;5.50;5.00;;;;;;;;;;5034176;28;20421;-60
2023/06/16 13:23:12;;;;;;;5.70;4.93;;;;;;;;;;5034538;28;20549;-61
2023/06/16 13:25:40;;;;;;;10.10;5.47;;;;;;;;;;5034469;28;20527;-61
2023/06/16 13:28:07;;;;;;;8.20;5.00;;;;;;;;;;5033531;28;20929;-60
2023/06/16 13:30:34;;;;;;;5.70;5.17;;;;;;;;;;5033816;28;20977;-61
2023/06/16 13:33:02;;;;;;;5.33;4.83;;;;;;;;;;5033718;28;20445;-61
2023/06/16 13:35:29;;;;;;;7.07;4.90;;;;;;;;;;5034087;28;20478;-61
2023/06/16 13:37:56;;;;;;;5.47;4.50;;;;;;;;;;5033554;28;20446;-61
2023/06/16 13:40:24;;;;;;;5.50;4.87;;;;;;;;;;5033781;28;20474;-61
2023/06/16 13:42:53;;;;;;;5.97;5.50;;;;;;;;;;5034172;28;20428;-61
2023/06/16 13:45:20;;;;;;;5.60;5.10;;;;;;;;;;5033655;28;20472;-61
2023/06/16 13:47:47;;;;;;;5.23;4.83;;;;;;;;;;5033853;28;20443;-61
2023/06/16 13:50:14;;;;;;;7.07;5.10;;;;;;;;;;5034040;28;20457;-61
2023/06/16 13:52:42;;;;;;;6.10;4.80;;;;;;;;;;5033731;28;20775;-61
2023/06/16 13:55:09;;;;;;;7.83;5.30;;;;;;;;;;5033891;28;20480;-61
2023/06/16 13:57:37;;;;;;;5.63;5.10;;;;;;;;;;5033877;28;20807;-60
2023/06/16 14:00:06;;;;;;;7.03;5.50;;;;;;;;;;5033489;28;20424;-61
2023/06/16 14:02:33;;;;;;;5.60;5.10;;;;;;;;;;5033512;28;20475;-61
2023/06/16 14:05:01;;;;;;;5.47;4.97;;;;;;;;;;5033398;28;20430;-61
2023/06/16 14:07:28;;;;;;;5.57;5.07;;;;;;;;;;5033341;28;20422;-61
2023/06/16 14:09:55;;;;;;;5.50;5.00;;;;;;;;;;5033008;28;20451;-61
2023/06/16 14:12:23;;;;;;;5.27;4.87;;;;;;;;;;5033280;28;20430;-61
2023/06/16 14:14:50;;;;;;;5.53;5.03;;;;;;;;;;5033228;28;20491;-61
2023/06/16 14:17:19;;;;;;;7.33;4.90;;;;;;;;;;5033252;28;20523;-61
2023/06/16 14:19:46;;;;;;;5.87;5.37;;;;;;;;;;5033402;28;20452;-61
2023/06/16 14:22:13;;;;;;;5.80;5.30;;;;;;;;;;5033169;28;20534;-61
2023/06/16 14:24:40;;;;;;;7.80;4.90;;;;;;;;;;5033351;28;20423;-61
2023/06/16 14:27:08;;;;;;;6.27;5.77;;;;;;;;;;5033277;28;20416;-61
2023/06/16 14:29:35;;;;;;;5.87;5.13;;;;;;;;;;5033065;28;20451;-61
2023/06/16 14:32:02;;;;;;;6.40;4.83;;;;;;;;;;5033110;28;20448;-61
2023/06/16 14:34:31;;;;;;;6.27;5.30;;;;;;;;;;5032845;28;21009;-61
2023/06/16 14:36:58;;;;;;;7.43;5.87;;;;;;;;;;5032908;28;20543;-61
2023/06/16 14:39:26;;;;;;;5.20;4.80;;;;;;;;;;5032996;28;20461;-61
2023/06/16 14:41:53;;;;;;;6.93;5.80;;;;;;;;;;5032924;28;20971;-61
2023/06/16 14:44:21;;;;;;;7.50;5.47;;;;;;;;;;5033608;28;20472;-61
2023/06/16 14:46:48;;;;;;;6.90;5.47;;;;;;;;;;5033565;28;20467;-61
2023/06/16 14:49:15;;;;;;;5.70;5.10;;;;;;;;;;5032110;28;20461;-62
2023/06/16 14:51:44;;;;;;;7.27;5.67;;;;;;;;;;5032700;28;20467;-61
2023/06/16 14:54:11;;;;;;;6.17;5.20;;;;;;;;;;5032474;28;21003;-61
2023/06/16 14:56:39;;;;;;;6.53;5.50;;;;;;;;;;5032971;28;20483;-61
2023/06/16 14:59:06;;;;;;;7.50;5.70;;;;;;;;;;5032626;28;20446;-61
2023/06/16 15:01:33;;;;;;;8.13;4.80;;;;;;;;;;5032766;28;20418;-61
2023/06/16 15:04:02;;;;;;;5.93;5.40;;;;;;;;;;5032845;28;20452;-60
2023/06/16 15:06:29;;;;;;;7.70;5.60;;;;;;;;;;5032890;28;20891;-61
2023/06/16 15:08:57;;;;;;;7.43;6.00;;;;;;;;;;5022105;28;20437;-61
2023/06/16 15:11:26;;;;;;;8.67;5.73;;;;;;;;;;5013249;28;20419;-61
2023/06/16 15:13:57;;;;;;;9.43;5.40;;;;;;;;;;5013555;28;20446;-61
2023/06/16 15:16:24;;;;;;;6.47;5.50;;;;;;;;;;5013326;28;20472;-61
2023/06/16 15:18:51;;;;;;;7.63;5.30;;;;;;;;;;5012844;28;20760;-62
2023/06/16 15:21:18;;;;;;;6.63;5.73;;;;;;;;;;5012562;28;20505;-62
2023/06/16 15:23:48;;;;;;;5.77;5.30;;;;;;;;;;5012815;28;20982;-61
2023/06/16 15:26:17;;;;;;;5.37;4.70;;;;;;;;;;5012618;28;20448;-60
2023/06/16 15:28:44;;;;;;;5.60;5.03;;;;;;;;;;5012997;28;20446;-62
2023/06/16 15:31:11;;;;;;;5.87;5.27;;;;;;;;;;5012876;28;20450;-61